Time;durP1;ratioP1;P1;durP2;ratioP2;P2;SDS_P1;SDS_P2;PMS_P1;PMS_P2;Temp;Humidity;BMP_temperature;BMP_pressure;BME280_temperature;BME280_humidity;BME280_pressure;Samples;Min_cycle;Max_cycle;Signal;HPM_P1;HPM_P2
2023/09/15 00:00:42;;;;;;;18.23;3.70;;;;;;;;;;4864731;29;20058;-73
2023/09/15 00:03:08;;;;;;;7.05;3.25;;;;;;;;;;4871531;29;20052;-73
2023/09/15 00:05:34;;;;;;;8.20;3.72;;;;;;;;;;4871438;29;20048;-73
2023/09/15 00:08:04;;;;;;;4.78;3.35;;;;;;;;;;4849937;29;22025;-73
2023/09/15 00:10:31;;;;;;;5.63;3.60;;;;;;;;;;4849052;29;20059;-73
2023/09/15 00:12:58;;;;;;;8.27;3.53;;;;;;;;;;4871975;29;20135;-73
2023/09/15 00:15:24;;;;;;;15.63;3.63;;;;;;;;;;4866732;29;20048;-72
2023/09/15 00:17:51;;;;;;;8.18;3.42;;;;;;;;;;4868918;29;20135;-72
2023/09/15 00:20:17;;;;;;;5.75;3.42;;;;;;;;;;4866901;29;20165;-72
2023/09/15 00:22:49;;;;;;;6.75;3.30;;;;;;;;;;4869253;29;20040;-72
2023/09/15 00:25:18;;;;;;;9.43;3.60;;;;;;;;;;4870910;29;20123;-73
2023/09/15 00:27:48;;;;;;;11.50;4.00;;;;;;;;;;4870597;29;20060;-72
2023/09/15 00:30:14;;;;;;;6.78;3.30;;;;;;;;;;4867261;29;20045;-73
2023/09/15 00:32:40;;;;;;;7.05;4.03;;;;;;;;;;4869933;29;21924;-71
2023/09/15 00:35:06;;;;;;;10.07;3.50;;;;;;;;;;4867484;29;20052;-71
2023/09/15 00:37:33;;;;;;;9.73;3.45;;;;;;;;;;4867408;29;20140;-72
2023/09/15 00:39:59;;;;;;;11.05;4.05;;;;;;;;;;4865681;29;20092;-72
2023/09/15 00:42:28;;;;;;;14.15;3.75;;;;;;;;;;4884227;29;20420;-72
2023/09/15 00:44:54;;;;;;;6.82;3.67;;;;;;;;;;4852017;29;20140;-71
2023/09/15 00:47:20;;;;;;;9.35;3.70;;;;;;;;;;4868819;29;20044;-72
2023/09/15 00:49:46;;;;;;;6.20;3.90;;;;;;;;;;4865041;29;20503;-72
2023/09/15 00:52:12;;;;;;;8.98;3.80;;;;;;;;;;4862763;29;20501;-72
2023/09/15 00:54:39;;;;;;;9.02;3.92;;;;;;;;;;4864928;29;20049;-72
2023/09/15 00:57:06;;;;;;;9.93;3.97;;;;;;;;;;4851182;29;20080;-72
2023/09/15 00:59:32;;;;;;;12.18;4.25;;;;;;;;;;4871393;29;20045;-72
2023/09/15 01:02:00;;;;;;;9.10;3.88;;;;;;;;;;4879678;29;20044;-72
2023/09/15 01:04:27;;;;;;;10.80;4.05;;;;;;;;;;4872685;29;20056;-72
2023/09/15 01:06:55;;;;;;;7.05;3.30;;;;;;;;;;4867592;29;20102;-72
2023/09/15 01:09:22;;;;;;;10.55;3.85;;;;;;;;;;4855774;29;20055;-72
2023/09/15 01:11:51;;;;;;;6.75;3.80;;;;;;;;;;4874997;29;20777;-72
2023/09/15 01:14:17;;;;;;;9.30;4.10;;;;;;;;;;4874983;29;20131;-73
2023/09/15 01:16:49;;;;;;;8.95;3.80;;;;;;;;;;4851977;29;20559;-72
2023/09/15 01:19:28;;;;;;;8.88;3.60;;;;;;;;;;4877456;29;20072;-72
2023/09/15 01:22:14;;;;;;;7.07;3.70;;;;;;;;;;4873764;29;20965;-72
2023/09/15 01:24:59;;;;;;;10.50;3.70;;;;;;;;;;4873481;29;20040;-72
2023/09/15 01:27:45;;;;;;;6.72;3.80;;;;;;;;;;4871895;29;20076;-73
2023/09/15 01:30:11;;;;;;;5.07;3.72;;;;;;;;;;4872776;29;21081;-73
2023/09/15 01:32:38;;;;;;;7.88;3.80;;;;;;;;;;4870590;29;20048;-73
2023/09/15 01:35:04;;;;;;;7.75;3.58;;;;;;;;;;4873772;29;20155;-72
2023/09/15 01:37:31;;;;;;;10.93;4.30;;;;;;;;;;4868374;29;20052;-73
2023/09/15 01:39:59;;;;;;;9.65;4.05;;;;;;;;;;4870742;29;20060;-73
2023/09/15 01:42:25;;;;;;;8.65;3.90;;;;;;;;;;4868026;29;20053;-72
2023/09/15 01:44:51;;;;;;;10.45;4.50;;;;;;;;;;4872843;29;22062;-72
2023/09/15 01:47:21;;;;;;;9.13;3.65;;;;;;;;;;4871968;29;20053;-72
2023/09/15 01:49:48;;;;;;;10.15;4.20;;;;;;;;;;4874472;29;20560;-72
2023/09/15 01:52:14;;;;;;;8.15;4.00;;;;;;;;;;4876499;29;20163;-72
2023/09/15 01:54:41;;;;;;;8.07;4.13;;;;;;;;;;4873978;29;20048;-72
2023/09/15 01:57:07;;;;;;;7.03;4.30;;;;;;;;;;4873648;29;20383;-72
2023/09/15 01:59:34;;;;;;;12.80;3.92;;;;;;;;;;4876384;29;20052;-71
2023/09/15 02:02:00;;;;;;;9.27;4.30;;;;;;;;;;4874833;29;20067;-71
2023/09/15 02:04:26;;;;;;;7.70;3.92;;;;;;;;;;4884084;29;20052;-71
2023/09/15 02:06:52;;;;;;;5.40;4.00;;;;;;;;;;4873616;29;20045;-71
2023/09/15 02:09:19;;;;;;;6.75;4.25;;;;;;;;;;4871512;29;21975;-71
2023/09/15 02:11:45;;;;;;;8.00;4.55;;;;;;;;;;4875537;29;20056;-72
2023/09/15 02:14:12;;;;;;;7.45;3.90;;;;;;;;;;4876789;29;20063;-72
2023/09/15 02:16:38;;;;;;;10.88;4.63;;;;;;;;;;4871767;29;20045;-72
2023/09/15 02:19:06;;;;;;;10.70;4.70;;;;;;;;;;4870239;29;20044;-72
2023/09/15 02:21:32;;;;;;;8.65;4.90;;;;;;;;;;4871862;29;20409;-72
2023/09/15 02:23:58;;;;;;;5.68;4.07;;;;;;;;;;4867685;29;20104;-71
2023/09/15 02:26:24;;;;;;;9.63;4.93;;;;;;;;;;4883241;29;22060;-72
2023/09/15 02:28:51;;;;;;;11.45;5.35;;;;;;;;;;4870943;29;20507;-72
2023/09/15 02:31:17;;;;;;;9.40;4.63;;;;;;;;;;4875510;29;20044;-72
2023/09/15 02:33:43;;;;;;;11.75;5.25;;;;;;;;;;4870156;29;20063;-72
2023/09/15 02:36:09;;;;;;;8.55;5.30;;;;;;;;;;4870890;29;20519;-72
2023/09/15 02:38:35;;;;;;;6.20;4.90;;;;;;;;;;4869786;29;20369;-72
2023/09/15 02:41:01;;;;;;;9.25;5.75;;;;;;;;;;4872553;29;20801;-71
2023/09/15 02:43:27;;;;;;;7.18;4.40;;;;;;;;;;4873478;29;20075;-72
2023/09/15 02:45:53;;;;;;;14.55;5.40;;;;;;;;;;4873384;29;20445;-72
2023/09/15 02:48:19;;;;;;;10.38;4.65;;;;;;;;;;4880234;29;20552;-72
2023/09/15 02:50:45;;;;;;;10.23;5.43;;;;;;;;;;4866692;29;20091;-72
2023/09/15 02:53:11;;;;;;;11.18;5.03;;;;;;;;;;4871868;29;20083;-73
2023/09/15 02:55:37;;;;;;;10.82;5.40;;;;;;;;;;4872555;29;20059;-73
2023/09/15 02:58:04;;;;;;;9.35;5.65;;;;;;;;;;4871253;29;20041;-73
2023/09/15 03:00:30;;;;;;;12.90;4.90;;;;;;;;;;4846616;29;20048;-74
2023/09/15 03:02:57;;;;;;;10.00;5.20;;;;;;;;;;4869556;29;20077;-73
2023/09/15 03:05:23;;;;;;;6.97;5.53;;;;;;;;;;4851364;29;20104;-73
2023/09/15 03:07:49;;;;;;;11.00;5.70;;;;;;;;;;4873406;29;20044;-73
2023/09/15 03:10:15;;;;;;;8.93;5.97;;;;;;;;;;4865177;29;21036;-73
2023/09/15 03:12:41;;;;;;;10.30;5.45;;;;;;;;;;4869138;29;20084;-73
2023/09/15 03:15:08;;;;;;;9.30;5.80;;;;;;;;;;4849374;29;20052;-73
2023/09/15 03:17:35;;;;;;;10.23;5.60;;;;;;;;;;4863633;29;20071;-73
2023/09/15 03:20:13;;;;;;;12.23;5.68;;;;;;;;;;4855460;29;20057;-73
2023/09/15 03:22:39;;;;;;;8.95;5.68;;;;;;;;;;4867215;29;22006;-73
2023/09/15 03:25:05;;;;;;;8.88;5.65;;;;;;;;;;4849970;29;22170;-73
2023/09/15 03:27:32;;;;;;;10.30;6.28;;;;;;;;;;4860362;29;20062;-73
2023/09/15 03:29:58;;;;;;;9.30;6.18;;;;;;;;;;4868343;29;22005;-73
2023/09/15 03:32:24;;;;;;;12.57;5.90;;;;;;;;;;4869299;29;20440;-73
2023/09/15 03:34:50;;;;;;;10.00;5.55;;;;;;;;;;4855597;29;20059;-73
2023/09/15 03:37:16;;;;;;;9.75;6.20;;;;;;;;;;4862680;29;20052;-73
2023/09/15 03:39:42;;;;;;;9.60;5.78;;;;;;;;;;4838474;29;20061;-73
2023/09/15 03:42:09;;;;;;;12.55;6.07;;;;;;;;;;4871702;29;20053;-73
2023/09/15 03:44:35;;;;;;;11.38;6.28;;;;;;;;;;4865878;29;20170;-73
2023/09/15 03:47:01;;;;;;;13.35;6.60;;;;;;;;;;4877515;29;20143;-73
2023/09/15 03:49:27;;;;;;;8.98;6.03;;;;;;;;;;4867393;29;20048;-73
2023/09/15 03:51:53;;;;;;;10.27;5.97;;;;;;;;;;4852118;29;20048;-73
2023/09/15 03:54:19;;;;;;;8.13;5.85;;;;;;;;;;4867081;29;20056;-73
2023/09/15 03:56:45;;;;;;;10.38;6.15;;;;;;;;;;4867631;29;20036;-71
2023/09/15 03:59:11;;;;;;;10.18;6.38;;;;;;;;;;4870271;29;20056;-71
2023/09/15 04:01:38;;;;;;;9.00;6.18;;;;;;;;;;4865383;29;20055;-71
2023/09/15 04:04:04;;;;;;;8.98;6.05;;;;;;;;;;4862525;29;20088;-72
2023/09/15 04:06:32;;;;;;;8.52;5.85;;;;;;;;;;4863166;29;20898;-71
2023/09/15 04:08:58;;;;;;;10.23;5.63;;;;;;;;;;4862549;29;20055;-71
2023/09/15 04:11:25;;;;;;;12.25;6.20;;;;;;;;;;4847752;29;20137;-72
2023/09/15 04:13:51;;;;;;;8.57;5.95;;;;;;;;;;4864492;29;20994;-72
2023/09/15 04:16:17;;;;;;;8.70;5.95;;;;;;;;;;4869775;29;20136;-72
2023/09/15 04:18:43;;;;;;;8.60;5.80;;;;;;;;;;4868439;29;20136;-72
2023/09/15 04:21:10;;;;;;;15.50;6.40;;;;;;;;;;4867710;29;20413;-72
2023/09/15 04:23:36;;;;;;;11.15;5.75;;;;;;;;;;4864172;29;20049;-73
2023/09/15 04:26:02;;;;;;;14.40;6.55;;;;;;;;;;4859322;29;20174;-72
2023/09/15 04:28:28;;;;;;;9.25;6.32;;;;;;;;;;4859935;29;20057;-73
2023/09/15 04:30:54;;;;;;;10.60;7.00;;;;;;;;;;4867355;29;20048;-72
2023/09/15 04:33:20;;;;;;;10.07;7.70;;;;;;;;;;4847889;29;20588;-73
2023/09/15 04:35:47;;;;;;;18.88;9.93;;;;;;;;;;4860114;29;20902;-73
2023/09/15 04:38:13;;;;;;;17.35;10.63;;;;;;;;;;4857328;29;20048;-71
2023/09/15 04:40:39;;;;;;;17.38;10.35;;;;;;;;;;4871454;29;20144;-72
2023/09/15 04:43:06;;;;;;;18.42;11.38;;;;;;;;;;4867202;29;20072;-73
2023/09/15 04:45:32;;;;;;;21.13;12.10;;;;;;;;;;4864791;29;20053;-72
2023/09/15 04:47:58;;;;;;;28.55;12.98;;;;;;;;;;4851804;29;20052;-72
2023/09/15 04:50:24;;;;;;;17.20;11.43;;;;;;;;;;4874881;29;20063;-72
2023/09/15 04:52:51;;;;;;;26.98;12.43;;;;;;;;;;4863695;29;20060;-73
2023/09/15 04:55:19;;;;;;;27.17;14.00;;;;;;;;;;4862832;29;20118;-72
2023/09/15 04:57:46;;;;;;;26.73;16.52;;;;;;;;;;4867750;29;20048;-72
2023/09/15 05:00:23;;;;;;;22.40;16.95;;;;;;;;;;4872711;29;20071;-72
2023/09/15 05:02:49;;;;;;;29.98;19.08;;;;;;;;;;4872304;29;20049;-72
2023/09/15 05:05:15;;;;;;;25.45;18.88;;;;;;;;;;4870298;29;21850;-72
2023/09/15 05:07:41;;;;;;;38.03;20.92;;;;;;;;;;4869682;29;20056;-72
2023/09/15 05:10:08;;;;;;;28.63;20.23;;;;;;;;;;4870129;29;20391;-73
2023/09/15 05:12:34;;;;;;;28.30;17.60;;;;;;;;;;4867800;29;20052;-73
2023/09/15 05:15:03;;;;;;;23.85;17.23;;;;;;;;;;4866737;29;20057;-73
2023/09/15 05:17:29;;;;;;;41.92;22.73;;;;;;;;;;4870892;29;20162;-73
2023/09/15 05:19:56;;;;;;;29.70;20.25;;;;;;;;;;4872735;29;20076;-72
2023/09/15 05:22:23;;;;;;;33.45;22.70;;;;;;;;;;4878574;29;20048;-72
2023/09/15 05:24:49;;;;;;;26.00;20.80;;;;;;;;;;4870346;29;20056;-72
2023/09/15 05:27:15;;;;;;;29.45;21.40;;;;;;;;;;4869446;29;20048;-73
2023/09/15 05:29:41;;;;;;;29.30;23.45;;;;;;;;;;4878741;29;20420;-72
2023/09/15 05:32:07;;;;;;;29.75;25.23;;;;;;;;;;4870350;29;20052;-72
2023/09/15 05:34:33;;;;;;;30.38;23.67;;;;;;;;;;4850706;29;20139;-72
2023/09/15 05:36:59;;;;;;;35.95;24.52;;;;;;;;;;4869744;29;20080;-72
2023/09/15 05:39:25;;;;;;;30.17;23.38;;;;;;;;;;4873221;29;20072;-72
2023/09/15 05:41:51;;;;;;;33.58;22.38;;;;;;;;;;4870610;29;20048;-72
2023/09/15 05:44:17;;;;;;;28.00;19.58;;;;;;;;;;4841979;29;20049;-80
2023/09/15 05:46:44;;;;;;;27.98;15.85;;;;;;;;;;4881222;29;22085;-80
2023/09/15 05:49:10;;;;;;;19.50;14.65;;;;;;;;;;4870625;29;20041;-80
2023/09/15 05:51:36;;;;;;;18.73;11.45;;;;;;;;;;4856322;29;20413;-79
2023/09/15 05:54:02;;;;;;;16.90;13.60;;;;;;;;;;4873993;29;20131;-79
2023/09/15 05:56:29;;;;;;;16.73;8.90;;;;;;;;;;4875323;29;20051;-80
2023/09/15 05:58:55;;;;;;;11.68;8.88;;;;;;;;;;4870023;29;20124;-80
2023/09/15 06:01:21;;;;;;;13.05;8.32;;;;;;;;;;4861053;29;20037;-80
2023/09/15 06:03:50;;;;;;;15.45;8.00;;;;;;;;;;4878316;29;20067;-81
2023/09/15 06:06:17;;;;;;;11.23;8.27;;;;;;;;;;4880020;29;21450;-80
2023/09/15 06:08:43;;;;;;;14.68;8.23;;;;;;;;;;4871633;29;20056;-76
2023/09/15 06:11:09;;;;;;;15.25;8.27;;;;;;;;;;4873609;29;20052;-79
2023/09/15 06:13:35;;;;;;;11.85;7.80;;;;;;;;;;4871420;29;20052;-80
2023/09/15 06:16:05;;;;;;;8.98;6.95;;;;;;;;;;4872333;29;20049;-82
2023/09/15 06:18:31;;;;;;;9.88;7.45;;;;;;;;;;4844206;29;20087;-83
2023/09/15 06:21:03;;;;;;;13.95;6.93;;;;;;;;;;4880930;29;20175;-83
2023/09/15 06:23:30;;;;;;;14.85;7.45;;;;;;;;;;4861473;29;20048;-84
2023/09/15 06:25:56;;;;;;;13.48;7.82;;;;;;;;;;4877190;29;20049;-78
2023/09/15 06:28:22;;;;;;;14.90;7.47;;;;;;;;;;4893815;29;20844;-80
2023/09/15 06:30:48;;;;;;;13.65;7.65;;;;;;;;;;4894699;29;20044;-79
2023/09/15 06:33:14;;;;;;;12.45;7.78;;;;;;;;;;4892528;29;20758;-80
2023/09/15 06:35:40;;;;;;;98.28;13.10;;;;;;;;;;4881970;29;20056;-85
2023/09/15 06:38:06;;;;;;;14.15;7.45;;;;;;;;;;4868255;29;20044;-86
2023/09/15 06:40:35;;;;;;;9.57;8.15;;;;;;;;;;4869663;29;20060;-84
2023/09/15 06:43:04;;;;;;;15.95;7.60;;;;;;;;;;4883067;29;20068;-83
2023/09/15 06:45:31;;;;;;;17.17;8.82;;;;;;;;;;4902150;29;20087;-83
2023/09/15 06:47:57;;;;;;;13.45;7.80;;;;;;;;;;4888886;29;20040;-85
2023/09/15 06:50:23;;;;;;;14.25;8.27;;;;;;;;;;4883337;29;20044;-83
2023/09/15 06:52:53;;;;;;;10.07;7.97;;;;;;;;;;4863654;29;20053;-84
2023/09/15 06:55:19;;;;;;;13.18;8.13;;;;;;;;;;4876884;29;20119;-85
2023/09/15 06:57:45;;;;;;;11.57;8.73;;;;;;;;;;4880284;29;20080;-80
2023/09/15 07:00:11;;;;;;;17.88;10.35;;;;;;;;;;4844853;29;20074;-84
2023/09/15 07:02:37;;;;;;;13.50;10.88;;;;;;;;;;4867380;29;20144;-85
2023/09/15 07:05:04;;;;;;;19.13;10.93;;;;;;;;;;4880353;29;20394;-85
2023/09/15 07:07:30;;;;;;;59.22;14.50;;;;;;;;;;4881665;29;20059;-84
2023/09/15 07:09:57;;;;;;;22.20;13.00;;;;;;;;;;4885037;29;20446;-87
2023/09/15 07:12:23;;;;;;;18.42;14.15;;;;;;;;;;4871914;29;20045;-84
2023/09/15 07:14:50;;;;;;;22.75;15.40;;;;;;;;;;4884152;29;20049;-85
2023/09/15 07:17:20;;;;;;;22.05;16.55;;;;;;;;;;4873404;29;20036;-85
2023/09/15 07:20:11;;;;;;;26.38;16.90;;;;;;;;;;4854896;29;20048;-86
2023/09/15 07:23:06;;;;;;;23.45;18.75;;;;;;;;;;4887993;29;20056;-85
2023/09/15 07:25:35;;;;;;;28.40;18.42;;;;;;;;;;4888175;29;20057;-84
2023/09/15 07:28:24;;;;;;;22.85;15.25;;;;;;;;;;4884889;29;20080;-83
2023/09/15 07:31:22;;;;;;;18.55;14.30;;;;;;;;;;4884783;29;20108;-84
2023/09/15 07:37:00;;;;;;;23.08;8.98;;;;;;;;;;4886627;29;20247;-84
2023/09/15 07:39:29;;;;;;;14.70;8.82;;;;;;;;;;4886269;29;20052;-84
2023/09/15 07:42:08;;;;;;;16.42;7.25;;;;;;;;;;4870158;29;20049;-84
2023/09/15 07:45:03;;;;;;;18.08;6.22;;;;;;;;;;4869370;29;20544;-84
2023/09/15 07:47:33;;;;;;;18.92;9.32;;;;;;;;;;4883281;29;20685;-84
2023/09/15 07:50:02;;;;;;;11.18;5.90;;;;;;;;;;4871003;29;20100;-84
2023/09/15 07:52:37;;;;;;;11.82;5.88;;;;;;;;;;4870385;29;20040;-85
2023/09/15 07:55:07;;;;;;;18.05;7.13;;;;;;;;;;4868718;29;20044;-85
2023/09/15 07:57:37;;;;;;;18.95;12.32;;;;;;;;;;4884836;29;20052;-85
2023/09/15 08:00:09;;;;;;;20.67;13.05;;;;;;;;;;4870828;29;20052;-85
2023/09/15 08:02:36;;;;;;;15.10;10.73;;;;;;;;;;4886680;29;20147;-85
2023/09/15 08:05:02;;;;;;;15.05;12.48;;;;;;;;;;4867577;29;20557;-85
2023/09/15 08:07:28;;;;;;;20.08;12.15;;;;;;;;;;4882068;29;20120;-85
2023/09/15 08:09:58;;;;;;;18.60;10.27;;;;;;;;;;4884491;29;20962;-85
2023/09/15 08:12:31;;;;;;;17.70;11.27;;;;;;;;;;4870297;29;20041;-78
2023/09/15 08:14:57;;;;;;;20.45;11.40;;;;;;;;;;4888427;29;20061;-82
2023/09/15 08:17:23;;;;;;;15.32;10.63;;;;;;;;;;4878579;29;20135;-82
2023/09/15 08:19:49;;;;;;;15.15;8.60;;;;;;;;;;4871617;29;20071;-82
2023/09/15 08:22:16;;;;;;;12.82;9.45;;;;;;;;;;4877558;29;20473;-82
2023/09/15 08:24:42;;;;;;;14.13;8.60;;;;;;;;;;4874250;29;20056;-81
2023/09/15 08:27:11;;;;;;;13.95;9.00;;;;;;;;;;4875958;29;20055;-82
2023/09/15 08:29:37;;;;;;;16.73;10.27;;;;;;;;;;4878543;29;20420;-71
2023/09/15 08:32:03;;;;;;;14.93;10.35;;;;;;;;;;4895035;29;20041;-82
2023/09/15 08:34:29;;;;;;;17.35;8.57;;;;;;;;;;4883518;29;22043;-82
2023/09/15 08:36:56;;;;;;;15.55;7.63;;;;;;;;;;4886229;29;21369;-82
2023/09/15 08:39:22;;;;;;;15.68;8.25;;;;;;;;;;4880363;29;20040;-82
2023/09/15 08:41:51;;;;;;;15.57;7.88;;;;;;;;;;4876580;29;20052;-81
2023/09/15 08:44:17;;;;;;;16.58;8.23;;;;;;;;;;4856923;29;20879;-79
2023/09/15 08:46:45;;;;;;;8.30;6.72;;;;;;;;;;4878022;29;20048;-81
2023/09/15 08:49:12;;;;;;;12.70;4.40;;;;;;;;;;4881910;29;20095;-82
2023/09/15 08:51:39;;;;;;;7.18;3.60;;;;;;;;;;4880852;29;20052;-81
2023/09/15 08:54:05;;;;;;;9.25;3.97;;;;;;;;;;4881762;29;20044;-81
2023/09/15 08:56:31;;;;;;;12.13;5.40;;;;;;;;;;4865185;29;20053;-81
2023/09/15 08:58:58;;;;;;;8.52;4.47;;;;;;;;;;4862840;29;20182;-77
2023/09/15 09:01:24;;;;;;;7.38;4.20;;;;;;;;;;4868189;29;20101;-76
2023/09/15 09:03:50;;;;;;;9.20;4.72;;;;;;;;;;4879558;29;20075;-76
2023/09/15 09:06:16;;;;;;;10.45;5.93;;;;;;;;;;4870338;29;20097;-77
2023/09/15 09:08:45;;;;;;;11.48;3.75;;;;;;;;;;4867788;29;20060;-76
2023/09/15 09:11:11;;;;;;;10.25;4.40;;;;;;;;;;4870744;29;20091;-77
2023/09/15 09:13:39;;;;;;;6.80;4.22;;;;;;;;;;4868939;29;20068;-77
2023/09/15 09:16:06;;;;;;;16.02;4.10;;;;;;;;;;4869233;29;20040;-70
2023/09/15 09:18:33;;;;;;;10.98;4.47;;;;;;;;;;4871950;29;20730;-69
2023/09/15 09:20:59;;;;;;;10.88;5.05;;;;;;;;;;4868987;29;20493;-69
2023/09/15 09:23:25;;;;;;;8.68;5.50;;;;;;;;;;4872552;29;20087;-69
2023/09/15 09:25:51;;;;;;;11.50;6.85;;;;;;;;;;4871499;29;20085;-70
2023/09/15 09:28:17;;;;;;;15.25;7.45;;;;;;;;;;4868588;29;20048;-70
2023/09/15 09:30:43;;;;;;;10.10;3.55;;;;;;;;;;4874421;29;20059;-68
2023/09/15 09:33:10;;;;;;;13.65;6.18;;;;;;;;;;4871499;29;20075;-71
2023/09/15 09:35:37;;;;;;;12.52;6.80;;;;;;;;;;4871584;29;20049;-69
2023/09/15 09:38:03;;;;;;;10.35;4.43;;;;;;;;;;4869315;29;20048;-69
2023/09/15 09:40:30;;;;;;;11.35;4.43;;;;;;;;;;4867868;29;20138;-70
2023/09/15 09:42:56;;;;;;;11.35;5.63;;;;;;;;;;4873604;29;20061;-69
2023/09/15 09:45:27;;;;;;;12.20;5.35;;;;;;;;;;4873558;29;20108;-70
2023/09/15 09:47:54;;;;;;;8.77;4.18;;;;;;;;;;4873411;29;20048;-70
2023/09/15 09:50:20;;;;;;;13.23;3.10;;;;;;;;;;4872562;29;20048;-69
2023/09/15 09:52:47;;;;;;;5.85;2.67;;;;;;;;;;4872469;29;20052;-69
2023/09/15 09:55:14;;;;;;;8.65;3.15;;;;;;;;;;4868414;29;20045;-69
2023/09/15 09:57:40;;;;;;;11.63;3.50;;;;;;;;;;4872126;29;20056;-70
2023/09/15 10:00:09;;;;;;;8.18;2.97;;;;;;;;;;4868053;29;20517;-69
2023/09/15 10:02:42;;;;;;;11.23;4.57;;;;;;;;;;4869517;29;20461;-69
2023/09/15 10:05:08;;;;;;;7.50;3.93;;;;;;;;;;4872203;29;20108;-69
2023/09/15 10:07:35;;;;;;;11.35;4.05;;;;;;;;;;4869662;29;22023;-69
2023/09/15 10:10:03;;;;;;;7.60;3.88;;;;;;;;;;4869531;29;20053;-69
2023/09/15 10:12:30;;;;;;;14.38;4.68;;;;;;;;;;4870426;29;20073;-69
2023/09/15 10:14:56;;;;;;;13.82;4.93;;;;;;;;;;4869597;29;20127;-69
2023/09/15 10:17:23;;;;;;;12.68;4.30;;;;;;;;;;4874340;29;22090;-69
2023/09/15 10:19:51;;;;;;;11.57;5.00;;;;;;;;;;4871103;29;20040;-69
2023/09/15 10:22:17;;;;;;;10.77;5.20;;;;;;;;;;4882066;29;20063;-69
2023/09/15 10:24:48;;;;;;;9.85;5.13;;;;;;;;;;4876096;29;20059;-69
2023/09/15 10:27:14;;;;;;;17.08;5.97;;;;;;;;;;4869894;29;20192;-69
2023/09/15 10:29:44;;;;;;;11.30;4.68;;;;;;;;;;4873409;29;20041;-69
2023/09/15 10:32:10;;;;;;;7.15;4.35;;;;;;;;;;4855946;29;20082;-69
2023/09/15 10:34:36;;;;;;;8.43;4.65;;;;;;;;;;4871332;29;20056;-69
2023/09/15 10:37:03;;;;;;;8.85;4.70;;;;;;;;;;4873055;29;20040;-70
2023/09/15 10:39:36;;;;;;;14.15;4.80;;;;;;;;;;4873702;29;20044;-69
2023/09/15 10:42:05;;;;;;;7.82;4.63;;;;;;;;;;4871941;29;20064;-68
2023/09/15 10:44:32;;;;;;;14.13;5.07;;;;;;;;;;4873798;29;20060;-70
2023/09/15 10:46:59;;;;;;;9.80;4.15;;;;;;;;;;4872268;29;20253;-70
2023/09/15 10:49:25;;;;;;;12.02;5.03;;;;;;;;;;4871393;29;20094;-69
2023/09/15 10:51:56;;;;;;;7.78;4.28;;;;;;;;;;4872744;29;20961;-69
2023/09/15 10:54:24;;;;;;;9.15;4.47;;;;;;;;;;4871671;29;20076;-70
2023/09/15 10:56:50;;;;;;;9.95;4.28;;;;;;;;;;4872392;29;20071;-69
2023/09/15 10:59:16;;;;;;;9.45;4.50;;;;;;;;;;4854041;29;20048;-69
2023/09/15 11:01:43;;;;;;;7.43;3.60;;;;;;;;;;4872751;29;20044;-69
2023/09/15 11:04:11;;;;;;;5.15;4.10;;;;;;;;;;4870650;29;20049;-70
2023/09/15 11:06:39;;;;;;;11.88;4.60;;;;;;;;;;4870035;29;20669;-71
2023/09/15 11:09:06;;;;;;;11.55;4.30;;;;;;;;;;4876968;29;20054;-71
2023/09/15 11:11:32;;;;;;;8.80;3.88;;;;;;;;;;4868528;29;20100;-70
2023/09/15 11:14:00;;;;;;;10.57;4.80;;;;;;;;;;4867785;29;20044;-70
2023/09/15 11:16:28;;;;;;;8.35;4.03;;;;;;;;;;4867871;29;20139;-70
2023/09/15 11:18:56;;;;;;;10.25;5.85;;;;;;;;;;4869015;29;20052;-68
2023/09/15 11:21:23;;;;;;;6.75;3.70;;;;;;;;;;4866595;29;20186;-69
2023/09/15 11:23:50;;;;;;;8.20;4.25;;;;;;;;;;4871821;29;20127;-70
2023/09/15 11:26:20;;;;;;;9.70;4.78;;;;;;;;;;4872200;29;20059;-69
2023/09/15 11:28:46;;;;;;;10.85;4.38;;;;;;;;;;4874964;29;20512;-70
2023/09/15 11:31:12;;;;;;;9.95;4.47;;;;;;;;;;4876854;29;20649;-69
2023/09/15 11:33:42;;;;;;;7.63;3.83;;;;;;;;;;4875247;29;20051;-70
2023/09/15 11:36:08;;;;;;;10.77;4.05;;;;;;;;;;4874470;29;20104;-69
2023/09/15 11:38:34;;;;;;;10.82;4.90;;;;;;;;;;4876858;29;20176;-69
2023/09/15 11:41:00;;;;;;;7.70;4.18;;;;;;;;;;4874652;29;20057;-70
2023/09/15 11:43:26;;;;;;;8.82;4.03;;;;;;;;;;4874180;29;20084;-69
2023/09/15 11:45:53;;;;;;;9.80;4.78;;;;;;;;;;4873840;29;20044;-70
2023/09/15 11:48:21;;;;;;;8.75;3.95;;;;;;;;;;4875563;29;20044;-70
2023/09/15 11:50:47;;;;;;;4.82;3.17;;;;;;;;;;4872562;29;20048;-70
2023/09/15 11:53:13;;;;;;;5.97;3.25;;;;;;;;;;4871754;29;20049;-71
2023/09/15 11:55:39;;;;;;;8.30;3.80;;;;;;;;;;4872295;29;20055;-70
2023/09/15 11:58:05;;;;;;;7.43;3.75;;;;;;;;;;4872420;29;20051;-70
2023/09/15 12:00:33;;;;;;;7.05;3.72;;;;;;;;;;4869606;29;20055;-70
2023/09/15 12:03:00;;;;;;;7.13;3.45;;;;;;;;;;4872778;29;20764;-70
2023/09/15 12:05:27;;;;;;;7.32;3.83;;;;;;;;;;4871857;29;20489;-70
2023/09/15 12:07:53;;;;;;;9.20;4.35;;;;;;;;;;4873433;29;20048;-70
2023/09/15 12:10:30;;;;;;;8.38;3.63;;;;;;;;;;4868838;29;20627;-70
2023/09/15 12:12:57;;;;;;;10.18;3.20;;;;;;;;;;4866805;29;20048;-70
2023/09/15 12:15:24;;;;;;;8.95;3.53;;;;;;;;;;4872696;29;20053;-71
2023/09/15 12:17:50;;;;;;;7.07;3.22;;;;;;;;;;4869069;29;20048;-71
2023/09/15 12:20:16;;;;;;;6.32;2.95;;;;;;;;;;4873502;29;20511;-71
2023/09/15 12:22:43;;;;;;;5.65;3.13;;;24.60;99.90;;;;;;4871335;29;20999;-72
2023/09/15 12:25:10;;;;;;;6.35;2.75;;;;;;;;;;4874140;29;20954;-72
2023/09/15 12:27:39;;;;;;;7.78;3.10;;;;;;;;;;4871742;29;20040;-71
2023/09/15 12:30:06;;;;;;;6.00;3.38;;;;;;;;;;4876412;29;20045;-72
2023/09/15 12:32:33;;;;;;;5.78;2.92;;;;;;;;;;4873473;29;20048;-72
2023/09/15 12:34:59;;;;;;;6.78;3.22;;;;;;;;;;4875223;29;20053;-72
2023/09/15 12:37:26;;;;;;;6.22;3.10;;;;;;;;;;4880042;29;20076;-72
2023/09/15 12:39:53;;;;;;;7.38;3.22;;;;;;;;;;4882576;29;20053;-72
2023/09/15 12:42:19;;;;;;;7.70;3.28;;;;;;;;;;4873992;29;20091;-72
2023/09/15 12:44:46;;;;;;;5.55;2.90;;;;;;;;;;4874687;29;20049;-72
2023/09/15 12:47:12;;;;;;;6.45;3.35;;;;;;;;;;4870814;29;20053;-72
2023/09/15 12:49:38;;;;;;;7.97;3.10;;;;;;;;;;4877686;29;20045;-73
2023/09/15 12:52:04;;;;;;;6.80;3.17;;;;;;;;;;4856438;29;21232;-72
2023/09/15 12:54:30;;;;;;;11.05;3.42;;;;;;;;;;4870935;29;20568;-72
2023/09/15 12:56:57;;;;;;;7.35;3.30;;;;;;;;;;4872193;29;20490;-72
2023/09/15 12:59:29;;;;;;;8.82;3.20;;;;;;;;;;4868787;29;20052;-72
2023/09/15 13:01:56;;;;;;;7.13;3.20;;;;;;;;;;4870318;29;20049;-72
2023/09/15 13:04:26;;;;;;;7.40;3.00;;;;;;;;;;4870355;29;20048;-73
2023/09/15 13:06:54;;;;;;;9.82;3.33;;;;;;;;;;4875620;29;20051;-72
2023/09/15 13:09:20;;;;;;;9.43;2.92;;;;;;;;;;4877562;29;20481;-72
2023/09/15 13:11:46;;;;;;;7.88;3.45;;;;;;;;;;4893523;29;20144;-72
2023/09/15 13:14:12;;;;;;;9.70;3.45;;;;;;;;;;4878943;29;20116;-72
2023/09/15 13:16:38;;;;;;;7.75;3.58;;;;;;;;;;4877306;29;20044;-72
2023/09/15 13:19:04;;;;;;;7.18;3.53;;;;;;;;;;4876231;29;20060;-72
2023/09/15 13:21:33;;;;;;;7.05;3.25;;;;;;;;;;4877180;29;20076;-72
2023/09/15 13:24:03;;;;;;;7.13;3.70;;;;;;;;;;4875514;29;20049;-71
2023/09/15 13:26:29;;;;;;;11.50;3.90;;;;;;;;;;4877889;29;20051;-72
2023/09/15 13:28:56;;;;;;;5.97;3.83;;;;;;;;;;4877421;29;20068;-71
2023/09/15 13:31:22;;;;;;;5.85;3.92;;;;;;;;;;4877073;29;20155;-71
2023/09/15 13:33:48;;;;;;;6.70;4.25;;;;;;;;;;4866139;29;20174;-71
2023/09/15 13:36:16;;;;;;;10.40;3.88;;;;;;;;;;4869862;29;20482;-71
2023/09/15 13:38:42;;;;;;;8.27;5.15;;;;;;;;;;4869140;29;20164;-71
2023/09/15 13:41:08;;;;;;;8.35;3.83;;;;;;;;;;4849940;29;22161;-71
2023/09/15 13:43:34;;;;;;;9.57;5.47;;;;;;;;;;4864742;29;20107;-71
2023/09/15 13:46:00;;;;;;;12.27;5.13;;;;;;;;;;4869565;29;20060;-71
2023/09/15 13:48:26;;;;;;;7.78;5.18;;;;;;;;;;4866142;29;20052;-72
2023/09/15 13:50:56;;;;;;;9.13;5.65;;;;;;;;;;4869664;29;20138;-71
2023/09/15 13:53:22;;;;;;;14.48;5.13;;;;;;;;;;4865924;29;20129;-71
2023/09/15 13:55:48;;;;;;;10.70;5.15;;;;;;;;;;4851401;29;20131;-73
2023/09/15 13:58:18;;;;;;;11.25;5.90;;;;;;;;;;4866997;29;20056;-72
2023/09/15 14:00:57;;;;;;;9.63;5.47;;;;;;;;;;4868564;29;20044;-72
2023/09/15 14:03:23;;;;;;;10.52;5.35;;;;;;;;;;4867056;29;20052;-71
2023/09/15 14:05:49;;;;;;;12.80;5.43;;;;;;;;;;4868265;29;20053;-72
2023/09/15 14:08:15;;;;;;;7.90;5.60;;;;;;;;;;4867328;29;20055;-71
2023/09/15 14:10:42;;;;;;;8.43;5.70;;;;;;;;;;4865238;29;20072;-71
2023/09/15 14:13:08;;;;;;;134.57;12.80;;;;;;;;;;4869603;29;20063;-71
2023/09/15 14:15:35;;;;;;;10.88;5.07;;;;;;;;;;4868248;29;20451;-71
2023/09/15 14:18:01;;;;;;;9.73;6.00;;;;;;;;;;4871218;29;20052;-70
2023/09/15 14:20:27;;;;;;;8.23;5.03;;;;;;;;;;4871132;29;20589;-71
2023/09/15 14:22:54;;;;;;;8.82;5.32;;;;;;;;;;4869070;29;20044;-71
2023/09/15 14:25:20;;;;;;;9.13;5.47;;;;;;;;;;4869297;29;20151;-71
2023/09/15 14:27:46;;;;;;;9.57;5.65;;;;;;;;;;4873861;29;20662;-72
2023/09/15 14:30:13;;;;;;;7.45;5.25;;;;;;;;;;4873533;29;20050;-71
2023/09/15 14:32:39;;;;;;;11.68;6.25;;;;;;;;;;4868065;29;20060;-71
2023/09/15 14:35:05;;;;;;;11.75;5.70;;;;;;;;;;4871625;29;20104;-71
2023/09/15 14:37:32;;;;;;;10.52;5.30;;;;;;;;;;4874778;29;20053;-72